sensor_id;sensor_type;location;lat;lon;timestamp;temperature;humidity
3100;DHT22;1560;52.746;13.474;2023-02-01T08:45:26;3.30;99.90
3100;DHT22;1560;52.746;13.474;2023-02-01T08:47:57;3.20;99.90
3100;DHT22;1560;52.746;13.474;2023-02-01T08:50:26;3.20;99.90
3100;DHT22;1560;52.746;13.474;2023-02-01T08:52:56;3.20;99.90
3100;DHT22;1560;52.746;13.474;2023-02-01T08:58:01;3.10;99.90
3100;DHT22;1560;52.746;13.474;2023-02-01T09:00:30;3.10;99.90
3100;DHT22;1560;52.746;13.474;2023-02-01T09:02:59;3.10;99.90
3100;DHT22;1560;52.746;13.474;2023-02-01T09:05:28;3.10;99.90
3100;DHT22;1560;52.746;13.474;2023-02-01T09:10:34;3.10;99.90
3100;DHT22;1560;52.746;13.474;2023-02-01T09:13:03;3.00;99.90
3100;DHT22;1560;52.746;13.474;2023-02-01T09:15:32;3.00;99.90
3100;DHT22;1560;52.746;13.474;2023-02-01T09:18:00;3.00;99.90
3100;DHT22;1560;52.746;13.474;2023-02-01T09:23:06;3.00;99.90
3100;DHT22;1560;52.746;13.474;2023-02-01T09:25:36;3.00;99.90
3100;DHT22;1560;52.746;13.474;2023-02-01T09:28:06;3.00;99.90
3100;DHT22;1560;52.746;13.474;2023-02-01T09:33:13;3.00;99.90
3100;DHT22;1560;52.746;13.474;2023-02-01T09:35:42;3.00;99.90
3100;DHT22;1560;52.746;13.474;2023-02-01T09:40:47;3.10;99.90
3100;DHT22;1560;52.746;13.474;2023-02-01T09:46:03;3.10;99.90
3100;DHT22;1560;52.746;13.474;2023-02-01T09:48:36;3.20;99.90
3100;DHT22;1560;52.746;13.474;2023-02-01T09:51:12;3.20;99.90
3100;DHT22;1560;52.746;13.474;2023-02-01T09:53:40;3.20;99.90
3100;DHT22;1560;52.746;13.474;2023-02-01T09:58:52;3.30;99.90
3100;DHT22;1560;52.746;13.474;2023-02-01T10:01:21;3.40;99.90
3100;DHT22;1560;52.746;13.474;2023-02-01T10:03:54;3.40;99.90
3100;DHT22;1560;52.746;13.474;2023-02-01T10:06:30;3.40;99.90
3100;DHT22;1560;52.746;13.474;2023-02-01T10:09:15;3.40;99.90
3100;DHT22;1560;52.746;13.474;2023-02-01T10:17:38;3.50;99.90
3100;DHT22;1560;52.746;13.474;2023-02-01T10:20:11;3.60;99.90
3100;DHT22;1560;52.746;13.474;2023-02-01T10:22:43;3.60;99.90
3100;DHT22;1560;52.746;13.474;2023-02-01T10:25:17;3.60;99.90
3100;DHT22;1560;52.746;13.474;2023-02-01T10:30:26;3.60;99.90
3100;DHT22;1560;52.746;13.474;2023-02-01T10:33:07;3.60;99.90
3100;DHT22;1560;52.746;13.474;2023-02-01T10:35:30;3.60;99.90
3100;DHT22;1560;52.746;13.474;2023-02-01T10:40:38;3.60;99.90
3100;DHT22;1560;52.746;13.474;2023-02-01T10:43:08;3.60;99.90
3100;DHT22;1560;52.746;13.474;2023-02-01T10:45:38;3.60;99.90
3100;DHT22;1560;52.746;13.474;2023-02-01T10:48:09;3.70;99.90
3100;DHT22;1560;52.746;13.474;2023-02-01T10:50:44;3.70;99.90
3100;DHT22;1560;52.746;13.474;2023-02-01T10:53:15;3.80;99.90
3100;DHT22;1560;52.746;13.474;2023-02-01T10:55:48;3.80;99.90
3100;DHT22;1560;52.746;13.474;2023-02-01T10:58:19;3.80;99.90
3100;DHT22;1560;52.746;13.474;2023-02-01T11:03:40;4.00;99.90
3100;DHT22;1560;52.746;13.474;2023-02-01T11:06:21;4.10;99.90
3100;DHT22;1560;52.746;13.474;2023-02-01T11:08:51;4.10;99.90
3100;DHT22;1560;52.746;13.474;2023-02-01T11:11:21;4.20;99.90
3100;DHT22;1560;52.746;13.474;2023-02-01T11:13:56;4.30;99.90
3100;DHT22;1560;52.746;13.474;2023-02-01T11:16:33;4.30;99.90
3100;DHT22;1560;52.746;13.474;2023-02-01T11:19:01;4.30;99.90
3100;DHT22;1560;52.746;13.474;2023-02-01T11:21:31;4.20;99.90
3100;DHT22;1560;52.746;13.474;2023-02-01T11:24:02;4.30;99.90
3100;DHT22;1560;52.746;13.474;2023-02-01T11:26:32;4.20;99.90
3100;DHT22;1560;52.746;13.474;2023-02-01T11:29:04;4.30;99.90
3100;DHT22;1560;52.746;13.474;2023-02-01T11:31:34;4.30;99.90
3100;DHT22;1560;52.746;13.474;2023-02-01T11:34:08;4.30;99.90
3100;DHT22;1560;52.746;13.474;2023-02-01T11:36:37;4.30;99.90
3100;DHT22;1560;52.746;13.474;2023-02-01T11:39:24;4.30;99.90
3100;DHT22;1560;52.746;13.474;2023-02-01T11:41:59;4.30;99.90
3100;DHT22;1560;52.746;13.474;2023-02-01T11:44:33;4.40;99.90
3100;DHT22;1560;52.746;13.474;2023-02-01T11:50:16;4.40;99.90
3100;DHT22;1560;52.746;13.474;2023-02-01T11:55:47;4.50;99.90
3100;DHT22;1560;52.746;13.474;2023-02-01T12:07:13;4.60;99.90
3100;DHT22;1560;52.746;13.474;2023-02-01T12:12:28;4.80;99.90
3100;DHT22;1560;52.746;13.474;2023-02-01T12:15:18;4.80;99.90
3100;DHT22;1560;52.746;13.474;2023-02-01T12:18:11;4.90;99.90
3100;DHT22;1560;52.746;13.474;2023-02-01T12:23:33;4.80;99.90
3100;DHT22;1560;52.746;13.474;2023-02-01T12:26:18;4.80;99.90
3100;DHT22;1560;52.746;13.474;2023-02-01T12:34:39;4.60;99.90
3100;DHT22;1560;52.746;13.474;2023-02-01T12:37:11;4.60;99.90
3100;DHT22;1560;52.746;13.474;2023-02-01T12:42:19;4.40;99.90
3100;DHT22;1560;52.746;13.474;2023-02-01T12:44:53;4.10;99.90
3100;DHT22;1560;52.746;13.474;2023-02-01T12:47:26;3.90;99.90
3100;DHT22;1560;52.746;13.474;2023-02-01T12:50:00;3.70;99.90
3100;DHT22;1560;52.746;13.474;2023-02-01T13:05:36;3.60;99.90
3100;DHT22;1560;52.746;13.474;2023-02-01T13:10:51;3.40;99.90
3100;DHT22;1560;52.746;13.474;2023-02-01T13:13:22;3.30;99.90
3100;DHT22;1560;52.746;13.474;2023-02-01T13:15:55;3.40;99.90
3100;DHT22;1560;52.746;13.474;2023-02-01T13:18:29;3.40;99.90
3100;DHT22;1560;52.746;13.474;2023-02-01T13:21:01;3.50;99.90
3100;DHT22;1560;52.746;13.474;2023-02-01T13:26:05;3.50;99.90
3100;DHT22;1560;52.746;13.474;2023-02-01T13:28:40;3.60;99.90
3100;DHT22;1560;52.746;13.474;2023-02-01T13:31:22;3.60;99.90
3100;DHT22;1560;52.746;13.474;2023-02-01T13:34:35;3.60;99.90
3100;DHT22;1560;52.746;13.474;2023-02-01T13:37:12;3.70;99.90
3100;DHT22;1560;52.746;13.474;2023-02-01T13:39:51;3.70;99.90
3100;DHT22;1560;52.746;13.474;2023-02-01T13:42:23;3.60;99.90
3100;DHT22;1560;52.746;13.474;2023-02-01T13:44:56;3.60;99.90
3100;DHT22;1560;52.746;13.474;2023-02-01T13:47:28;3.60;99.90
3100;DHT22;1560;52.746;13.474;2023-02-01T13:50:01;3.70;99.90
3100;DHT22;1560;52.746;13.474;2023-02-01T13:52:36;3.70;99.90
3100;DHT22;1560;52.746;13.474;2023-02-01T13:58:00;3.70;99.90
3100;DHT22;1560;52.746;13.474;2023-02-01T14:03:13;3.80;99.90
3100;DHT22;1560;52.746;13.474;2023-02-01T14:05:59;3.80;99.90
3100;DHT22;1560;52.746;13.474;2023-02-01T14:08:40;3.80;99.90
3100;DHT22;1560;52.746;13.474;2023-02-01T14:11:36;3.80;99.90
3100;DHT22;1560;52.746;13.474;2023-02-01T14:20:49;4.00;99.90
3100;DHT22;1560;52.746;13.474;2023-02-01T14:23:28;3.90;99.90
3100;DHT22;1560;52.746;13.474;2023-02-01T14:29:16;3.90;99.90
3100;DHT22;1560;52.746;13.474;2023-02-01T14:32:04;3.90;99.90
3100;DHT22;1560;52.746;13.474;2023-02-01T14:37:26;4.00;99.90
3100;DHT22;1560;52.746;13.474;2023-02-01T14:39:58;4.00;99.90
3100;DHT22;1560;52.746;13.474;2023-02-01T14:48:45;4.00;99.90
3100;DHT22;1560;52.746;13.474;2023-02-01T14:53:56;4.10;99.90
3100;DHT22;1560;52.746;13.474;2023-02-01T14:59:07;4.10;99.90
3100;DHT22;1560;52.746;13.474;2023-02-01T15:01:39;4.10;99.90
3100;DHT22;1560;52.746;13.474;2023-02-01T15:04:11;4.10;99.90
3100;DHT22;1560;52.746;13.474;2023-02-01T15:09:23;4.20;99.90
3100;DHT22;1560;52.746;13.474;2023-02-01T15:12:02;4.20;99.90
3100;DHT22;1560;52.746;13.474;2023-02-01T15:14:33;4.10;99.90
3100;DHT22;1560;52.746;13.474;2023-02-01T15:19:39;4.20;99.90
3100;DHT22;1560;52.746;13.474;2023-02-01T15:24:58;4.20;99.90
3100;DHT22;1560;52.746;13.474;2023-02-01T15:27:31;4.20;99.90
3100;DHT22;1560;52.746;13.474;2023-02-01T15:30:16;4.20;99.90
3100;DHT22;1560;52.746;13.474;2023-02-01T15:35:41;4.20;99.90
3100;DHT22;1560;52.746;13.474;2023-02-01T15:38:25;4.10;99.90
3100;DHT22;1560;52.746;13.474;2023-02-01T15:40:56;4.00;99.90
3100;DHT22;1560;52.746;13.474;2023-02-01T15:43:31;3.90;99.90
3100;DHT22;1560;52.746;13.474;2023-02-01T15:48:45;3.90;99.90
3100;DHT22;1560;52.746;13.474;2023-02-01T15:51:18;3.80;99.90
3100;DHT22;1560;52.746;13.474;2023-02-01T15:53:50;3.70;99.90
3100;DHT22;1560;52.746;13.474;2023-02-01T15:56:25;3.70;99.90
3100;DHT22;1560;52.746;13.474;2023-02-01T15:58:59;3.70;99.90
3100;DHT22;1560;52.746;13.474;2023-02-01T16:01:29;3.70;99.90
3100;DHT22;1560;52.746;13.474;2023-02-01T16:04:12;3.70;99.90
3100;DHT22;1560;52.746;13.474;2023-02-01T16:06:47;3.70;99.90
3100;DHT22;1560;52.746;13.474;2023-02-01T16:11:58;3.60;99.90
3100;DHT22;1560;52.746;13.474;2023-02-01T16:14:27;3.50;99.90
3100;DHT22;1560;52.746;13.474;2023-02-01T16:16:58;3.40;99.90
3100;DHT22;1560;52.746;13.474;2023-02-01T16:19:27;3.30;99.90
3100;DHT22;1560;52.746;13.474;2023-02-01T16:21:56;3.30;99.90
3100;DHT22;1560;52.746;13.474;2023-02-01T16:24:26;3.30;99.90
3100;DHT22;1560;52.746;13.474;2023-02-01T16:26:54;3.30;99.90
3100;DHT22;1560;52.746;13.474;2023-02-01T16:29:23;3.20;99.90
3100;DHT22;1560;52.746;13.474;2023-02-01T16:31:52;3.20;99.90
3100;DHT22;1560;52.746;13.474;2023-02-01T16:36:58;3.10;99.90
3100;DHT22;1560;52.746;13.474;2023-02-01T16:39:28;3.10;99.90
3100;DHT22;1560;52.746;13.474;2023-02-01T16:41:58;3.10;99.90
3100;DHT22;1560;52.746;13.474;2023-02-01T16:44:27;3.10;99.90
3100;DHT22;1560;52.746;13.474;2023-02-01T16:46:56;3.00;99.90
3100;DHT22;1560;52.746;13.474;2023-02-01T16:49:26;2.90;99.90
3100;DHT22;1560;52.746;13.474;2023-02-01T16:54:35;2.90;99.90
3100;DHT22;1560;52.746;13.474;2023-02-01T16:57:04;2.80;99.90
3100;DHT22;1560;52.746;13.474;2023-02-01T17:02:12;2.80;99.90
3100;DHT22;1560;52.746;13.474;2023-02-01T17:04:42;2.80;99.90
3100;DHT22;1560;52.746;13.474;2023-02-01T17:07:12;2.70;99.90
3100;DHT22;1560;52.746;13.474;2023-02-01T17:09:42;2.70;99.90
3100;DHT22;1560;52.746;13.474;2023-02-01T17:12:17;2.70;99.90
3100;DHT22;1560;52.746;13.474;2023-02-01T17:17:32;2.70;99.90
3100;DHT22;1560;52.746;13.474;2023-02-01T17:22:32;2.60;99.90
3100;DHT22;1560;52.746;13.474;2023-02-01T17:25:00;2.70;99.90
3100;DHT22;1560;52.746;13.474;2023-02-01T17:27:29;2.70;99.90
3100;DHT22;1560;52.746;13.474;2023-02-01T17:29:58;2.70;99.90
3100;DHT22;1560;52.746;13.474;2023-02-01T17:35:11;2.70;99.90
3100;DHT22;1560;52.746;13.474;2023-02-01T17:37:40;2.60;99.90
3100;DHT22;1560;52.746;13.474;2023-02-01T17:42:49;2.70;99.90
3100;DHT22;1560;52.746;13.474;2023-02-01T17:45:25;2.70;99.90
3100;DHT22;1560;52.746;13.474;2023-02-01T17:47:53;2.80;99.90
3100;DHT22;1560;52.746;13.474;2023-02-01T17:50:23;2.80;99.90
3100;DHT22;1560;52.746;13.474;2023-02-01T17:55:32;2.80;99.90
3100;DHT22;1560;52.746;13.474;2023-02-01T17:58:01;2.80;99.90
3100;DHT22;1560;52.746;13.474;2023-02-01T18:00:30;2.90;99.90
3100;DHT22;1560;52.746;13.474;2023-02-01T18:02:59;2.90;99.90
3100;DHT22;1560;52.746;13.474;2023-02-01T18:08:06;2.90;99.90
3100;DHT22;1560;52.746;13.474;2023-02-01T18:10:35;2.90;99.90
3100;DHT22;1560;52.746;13.474;2023-02-01T18:13:04;2.90;99.90
3100;DHT22;1560;52.746;13.474;2023-02-01T18:18:09;3.00;99.90
3100;DHT22;1560;52.746;13.474;2023-02-01T18:20:40;3.00;99.90
3100;DHT22;1560;52.746;13.474;2023-02-01T18:23:15;3.00;99.90
3100;DHT22;1560;52.746;13.474;2023-02-01T18:28:21;3.00;99.90
3100;DHT22;1560;52.746;13.474;2023-02-01T18:30:50;3.00;99.90
3100;DHT22;1560;52.746;13.474;2023-02-01T18:33:20;3.00;99.90
3100;DHT22;1560;52.746;13.474;2023-02-01T18:35:49;3.00;99.90
3100;DHT22;1560;52.746;13.474;2023-02-01T18:38:18;3.00;99.90
3100;DHT22;1560;52.746;13.474;2023-02-01T18:43:23;3.00;99.90
3100;DHT22;1560;52.746;13.474;2023-02-01T18:45:53;3.00;99.90
3100;DHT22;1560;52.746;13.474;2023-02-01T18:50:58;3.00;99.90
3100;DHT22;1560;52.746;13.474;2023-02-01T18:53:27;3.00;99.90
3100;DHT22;1560;52.746;13.474;2023-02-01T18:55:57;3.00;99.90
3100;DHT22;1560;52.746;13.474;2023-02-01T18:58:26;3.10;99.90
3100;DHT22;1560;52.746;13.474;2023-02-01T19:00:57;3.10;99.90
3100;DHT22;1560;52.746;13.474;2023-02-01T19:06:03;3.10;99.90
3100;DHT22;1560;52.746;13.474;2023-02-01T19:08:32;3.20;99.90
3100;DHT22;1560;52.746;13.474;2023-02-01T19:13:39;3.20;99.90
3100;DHT22;1560;52.746;13.474;2023-02-01T19:16:10;3.20;99.90
3100;DHT22;1560;52.746;13.474;2023-02-01T19:18:39;3.20;99.90
3100;DHT22;1560;52.746;13.474;2023-02-01T19:21:10;3.20;99.90
3100;DHT22;1560;52.746;13.474;2023-02-01T19:23:40;3.20;99.90
3100;DHT22;1560;52.746;13.474;2023-02-01T19:26:11;3.30;99.90
3100;DHT22;1560;52.746;13.474;2023-02-01T19:28:40;3.30;99.90
3100;DHT22;1560;52.746;13.474;2023-02-01T19:31:11;3.30;99.90
3100;DHT22;1560;52.746;13.474;2023-02-01T19:33:40;3.30;99.90
3100;DHT22;1560;52.746;13.474;2023-02-01T19:36:09;3.40;99.90
3100;DHT22;1560;52.746;13.474;2023-02-01T19:38:38;3.30;99.90
3100;DHT22;1560;52.746;13.474;2023-02-01T19:41:08;3.30;99.90
3100;DHT22;1560;52.746;13.474;2023-02-01T19:43:36;3.30;99.90
3100;DHT22;1560;52.746;13.474;2023-02-01T19:46:06;3.30;99.90
3100;DHT22;1560;52.746;13.474;2023-02-01T19:51:11;3.30;99.90
3100;DHT22;1560;52.746;13.474;2023-02-01T19:53:40;3.30;99.90
3100;DHT22;1560;52.746;13.474;2023-02-01T19:56:10;3.30;99.90
3100;DHT22;1560;52.746;13.474;2023-02-01T20:01:16;3.30;99.90
3100;DHT22;1560;52.746;13.474;2023-02-01T20:03:46;3.30;99.90
3100;DHT22;1560;52.746;13.474;2023-02-01T20:06:14;3.30;99.90
3100;DHT22;1560;52.746;13.474;2023-02-01T20:08:43;3.30;99.90
3100;DHT22;1560;52.746;13.474;2023-02-01T20:11:12;3.30;99.90
3100;DHT22;1560;52.746;13.474;2023-02-01T20:16:17;3.40;99.90
3100;DHT22;1560;52.746;13.474;2023-02-01T20:18:47;3.40;99.90
3100;DHT22;1560;52.746;13.474;2023-02-01T20:21:16;3.40;99.90
3100;DHT22;1560;52.746;13.474;2023-02-01T20:23:46;3.40;99.90
3100;DHT22;1560;52.746;13.474;2023-02-01T20:28:54;3.50;99.90
3100;DHT22;1560;52.746;13.474;2023-02-01T20:31:23;3.50;99.90
3100;DHT22;1560;52.746;13.474;2023-02-01T20:36:29;3.50;99.90
3100;DHT22;1560;52.746;13.474;2023-02-01T20:38:59;3.50;99.90
3100;DHT22;1560;52.746;13.474;2023-02-01T20:41:28;3.50;99.90
3100;DHT22;1560;52.746;13.474;2023-02-01T20:43:57;3.60;99.90
3100;DHT22;1560;52.746;13.474;2023-02-01T20:46:26;3.60;99.90
3100;DHT22;1560;52.746;13.474;2023-02-01T20:48:55;3.60;99.90
3100;DHT22;1560;52.746;13.474;2023-02-01T20:51:24;3.60;99.90
3100;DHT22;1560;52.746;13.474;2023-02-01T20:53:53;3.60;99.90
3100;DHT22;1560;52.746;13.474;2023-02-01T20:56:22;3.60;99.90
3100;DHT22;1560;52.746;13.474;2023-02-01T20:58:51;3.60;99.90
3100;DHT22;1560;52.746;13.474;2023-02-01T21:01:20;3.60;99.90
3100;DHT22;1560;52.746;13.474;2023-02-01T21:06:25;3.50;99.90
3100;DHT22;1560;52.746;13.474;2023-02-01T21:08:54;3.50;99.90
3100;DHT22;1560;52.746;13.474;2023-02-01T21:11:23;3.50;99.90
3100;DHT22;1560;52.746;13.474;2023-02-01T21:13:52;3.60;99.90
3100;DHT22;1560;52.746;13.474;2023-02-01T21:16:21;3.60;99.90
3100;DHT22;1560;52.746;13.474;2023-02-01T21:18:51;3.50;99.90
3100;DHT22;1560;52.746;13.474;2023-02-01T21:23:57;3.50;99.90
3100;DHT22;1560;52.746;13.474;2023-02-01T21:26:26;3.50;99.90
3100;DHT22;1560;52.746;13.474;2023-02-01T21:31:31;3.50;99.90
3100;DHT22;1560;52.746;13.474;2023-02-01T21:34:00;3.50;99.90
3100;DHT22;1560;52.746;13.474;2023-02-01T21:36:29;3.50;99.90
3100;DHT22;1560;52.746;13.474;2023-02-01T21:39:03;3.50;99.90
3100;DHT22;1560;52.746;13.474;2023-02-01T21:44:09;3.40;99.90
3100;DHT22;1560;52.746;13.474;2023-02-01T21:46:40;3.40;99.90
3100;DHT22;1560;52.746;13.474;2023-02-01T21:51:45;3.40;99.90
3100;DHT22;1560;52.746;13.474;2023-02-01T21:54:14;3.40;99.90
3100;DHT22;1560;52.746;13.474;2023-02-01T21:56:44;3.40;99.90
3100;DHT22;1560;52.746;13.474;2023-02-01T22:01:50;3.50;99.90
3100;DHT22;1560;52.746;13.474;2023-02-01T22:04:18;3.50;99.90
3100;DHT22;1560;52.746;13.474;2023-02-01T22:06:47;3.50;99.90
3100;DHT22;1560;52.746;13.474;2023-02-01T22:11:54;3.50;99.90
3100;DHT22;1560;52.746;13.474;2023-02-01T22:14:23;3.50;99.90
3100;DHT22;1560;52.746;13.474;2023-02-01T22:16:51;3.60;99.90
3100;DHT22;1560;52.746;13.474;2023-02-01T22:21:57;3.60;99.90
3100;DHT22;1560;52.746;13.474;2023-02-01T22:24:26;3.60;99.90
3100;DHT22;1560;52.746;13.474;2023-02-01T22:26:55;3.60;99.90
3100;DHT22;1560;52.746;13.474;2023-02-01T22:29:24;3.60;99.90
3100;DHT22;1560;52.746;13.474;2023-02-01T22:31:53;3.60;99.90
3100;DHT22;1560;52.746;13.474;2023-02-01T22:34:22;3.60;99.90
3100;DHT22;1560;52.746;13.474;2023-02-01T22:36:50;3.50;99.90
3100;DHT22;1560;52.746;13.474;2023-02-01T22:41:56;3.60;99.90
3100;DHT22;1560;52.746;13.474;2023-02-01T22:44:25;3.60;99.90
3100;DHT22;1560;52.746;13.474;2023-02-01T22:46:53;3.60;99.90
3100;DHT22;1560;52.746;13.474;2023-02-01T22:49:22;3.70;99.90
3100;DHT22;1560;52.746;13.474;2023-02-01T22:54:27;3.70;99.90
3100;DHT22;1560;52.746;13.474;2023-02-01T22:56:56;3.70;99.90
3100;DHT22;1560;52.746;13.474;2023-02-01T22:59:27;3.70;99.90
3100;DHT22;1560;52.746;13.474;2023-02-01T23:01:56;3.70;99.90
3100;DHT22;1560;52.746;13.474;2023-02-01T23:04:24;3.70;99.90
3100;DHT22;1560;52.746;13.474;2023-02-01T23:06:54;3.70;99.90
3100;DHT22;1560;52.746;13.474;2023-02-01T23:11:59;3.70;99.90
3100;DHT22;1560;52.746;13.474;2023-02-01T23:14:28;3.70;99.90
3100;DHT22;1560;52.746;13.474;2023-02-01T23:16:57;3.70;99.90
3100;DHT22;1560;52.746;13.474;2023-02-01T23:19:26;3.70;99.90
3100;DHT22;1560;52.746;13.474;2023-02-01T23:21:54;3.70;99.90
3100;DHT22;1560;52.746;13.474;2023-02-01T23:24:23;3.60;99.90
3100;DHT22;1560;52.746;13.474;2023-02-01T23:26:52;3.70;99.90
3100;DHT22;1560;52.746;13.474;2023-02-01T23:31:57;3.70;99.90
3100;DHT22;1560;52.746;13.474;2023-02-01T23:34:26;3.70;99.90
3100;DHT22;1560;52.746;13.474;2023-02-01T23:36:55;3.70;99.90
3100;DHT22;1560;52.746;13.474;2023-02-01T23:39:24;3.70;99.90
3100;DHT22;1560;52.746;13.474;2023-02-01T23:41:53;3.80;99.90
3100;DHT22;1560;52.746;13.474;2023-02-01T23:44:22;3.80;99.90
3100;DHT22;1560;52.746;13.474;2023-02-01T23:46:50;3.80;99.90
3100;DHT22;1560;52.746;13.474;2023-02-01T23:49:19;3.80;99.90
3100;DHT22;1560;52.746;13.474;2023-02-01T23:51:48;3.80;99.90
3100;DHT22;1560;52.746;13.474;2023-02-01T23:54:21;3.80;99.90
3100;DHT22;1560;52.746;13.474;2023-02-01T23:56:51;3.80;99.90
3100;DHT22;1560;52.746;13.474;2023-02-01T23:59:22;3.80;99.90
